Polaris, Montana
Current Conditions -  °F | °C
As of 12:53 AM on Sunday 26 Oct 2014 (Local Time) from KDLN Reporting Station
Light Rain Light Rain  
Wind Chill: 42°   Ceiling: 9000
Heat Index: 49°   Visibility: 10mi
Dew Point: 36°   Wind: 18mph
Humidity: 61%   Direction: 210°SSW
Pressure: 29.8"   Gusts: NA
Location:  45.37°N, 113.12°W
Report Text: KDLN 260653Z AUTO 21016KT 10SM -RA BKN090 OVC110 09/02 A2980 RMK AO2 PK WND 25041/0612 RAB15 SLP058 P0000 T00940022 402111017
Loading
Personal Weather Stations






























Interactive Weather Map
Tropical Storm Tracking
New forecast layout! Learn more

10-Day Weather Forecast

Advertisements
Track Severe Weather on mobile